To NAV CANADA Home Page Login to a new session Search on AWWS site Feedback and Comments Disclaimer Vers la page française équivalente Tips FAQ What's new on the site To the Forecasts and Observations / NOTAM section To "File a Flight Plan" website Publications and other links Update of the User's profile FIC Telephone Numbers My Weather Data Folder Route Weather Data Regional Weather Data Local Weather Data To the Forecasts and Observations / NOTAM section
Request Generated 07/30/2015 at 22:59:48 UTC . Weather information available at that time is displayed.

METAR/TAF

THUNDER BAY/ON    

METAR CYQT 302200Z 25009G15KT 20SM FEW015 SCT055 BKN100 BKN210 19/16
A2981 RMK CF1CU3AC2CI1 SLP096 DENSITY ALT 1400FT=
SPECI CYQT 302119Z 28012KT 20SM -SHRA FEW020 BKN065 OVC090 24/12
A2980 RMK CF2CU5AC1 VIS LWR NW SHRA MOVG SE SLP091 DENSITY ALT
1900FT=
METAR CYQT 302100Z 26013G18KT 20SM SCT060 BKN230 25/12 A2980 RMK
CU4CI3 SLP090 DENSITY ALT 2100FT=
METAR CYQT 302000Z 28015KT 260V320 20SM BKN060 BKN230 26/12 A2980 RMK
CU5CI2 SLP092 DENSITY ALT 2100FT=

TAF CYQT 301946Z 3020/3108 29012G22KT P6SM BKN070
FM302300 30012KT P6SM BKN070 TEMPO 3023/3101 P6SM -SHRA BKN070
PROB30 3023/3101 3SM TSRA BR BKN020 OVC050CB
FM310100 29006KT P6SM FEW012 SCT070
RMK NXT FCST BY 310200Z=
Your time UTC time
Weather data provided by Environment Canada and NAV CANADA